Philip, SD

4:56 AM MDT on September 20, 2014 (GMT -0600)
Faith | Change Station
CLOSE
Current Station
Airport
Location: Faith,
Elevation: 2582 ft
Nearby Weather Stations

Elev 2582 ft 45.03 °N, 102.02 °W | Updated 1 hour ago

Partly Cloudy
Partly Cloudy
58 °F
Feels Like 58 °F
N
12
Wind Variable Wind from West
Gusts 8 mph

Today
High -- | Low -- °F
--% Chance of Precip.
Yesterday
High -- | Low -- °F
Precip. -- in
6:31 AM 6:47 PM
Waning Crescent, 13% visible
Pressure 29.91 in
Visibility -9999.0 miles
Clouds
Dew Point 48 °F
Humidity 70%
Rainfall 0.00 in
Snow Depth 0 in
UV Not available.
Pollen 6.10 out of 12
Air Quality Not available.
Flu Activity Not available.
METAR KD07 200956Z AUTO 28010KT 14/09 A2994 RMK AO1 SLP126 T01440089

More Conditions Fewer Conditions

Pressure 29.91 in
Visibility -9999.0 miles
Clouds
Dew Point 48 °F
Humidity 70%
Rainfall 0.00 in
Snow Depth 0 in
UV Not available.
Pollen 6.10 out of 12
Air Quality Not available.
Flu Activity Not available.
METAR KD07 200956Z AUTO 28010KT 14/09 A2994 RMK AO1 SLP126 T01440089

More Conditions Fewer Conditions

10-Day Weather Forecast

Almanac

Astronomy

Sep. 20, 2014 Rise Set
Actual Time 6:31 AM MDT 6:47 PM MDT
Civil Twilight 6:02 AM MDT 7:16 PM MDT
Nautical Twilight 5:28 AM MDT 7:50 PM MDT
Astronomical Twilight 4:53 AM MDT 8:25 PM MDT
Moon 3:06 AM MDT 4:56 PM MDT
Length of Visible Light 13h 13m
Length of Day
12h 16m
Tomorrow will be 3m 1s shorter.
Waning Crescent, 13% of the Moon is Illuminated
Today
Waning Crescent
Sep 24
New
Oct 1
First Quarter
Oct 8
Full
Oct 15
Last Quarter

Today's Extremes

State Highs State Lows

Community

WunderPhotos

Upload Photos

1,754,827 photos uploaded!

Nearby

Snow Depth

Station Depth Elevation
Blind Park 0 in 6890 ft

Earthquake Activity

City Distance Mag. Time & Date
No recent earthquake activity has been reported nearby.
Minimum magnitude displayed is 2.5.

Coastal Water Temperatures

Place Temperature
No Stations Reporting

Nearby Weather Stations